sensor_id;sensor_type;location;lat;lon;timestamp;P1;durP1;ratioP1;P2;durP2;ratioP2
7807;SDS011;3949;49.254;8.894;2023-09-30T00:01:31;3.30;;;2.90;;
7807;SDS011;3949;49.254;8.894;2023-09-30T00:03:57;4.20;;;3.67;;
7807;SDS011;3949;49.254;8.894;2023-09-30T00:06:23;8.80;;;4.10;;
7807;SDS011;3949;49.254;8.894;2023-09-30T00:08:49;4.67;;;3.60;;
7807;SDS011;3949;49.254;8.894;2023-09-30T00:11:15;5.83;;;3.67;;
7807;SDS011;3949;49.254;8.894;2023-09-30T00:13:44;5.03;;;3.43;;
7807;SDS011;3949;49.254;8.894;2023-09-30T00:16:10;5.17;;;3.77;;
7807;SDS011;3949;49.254;8.894;2023-09-30T00:18:36;5.30;;;3.97;;
7807;SDS011;3949;49.254;8.894;2023-09-30T00:21:02;3.63;;;3.33;;
7807;SDS011;3949;49.254;8.894;2023-09-30T00:23:28;5.93;;;3.83;;
7807;SDS011;3949;49.254;8.894;2023-09-30T00:25:54;4.50;;;3.93;;
7807;SDS011;3949;49.254;8.894;2023-09-30T00:28:21;6.27;;;4.43;;
7807;SDS011;3949;49.254;8.894;2023-09-30T00:30:47;4.83;;;3.60;;
7807;SDS011;3949;49.254;8.894;2023-09-30T00:33:13;6.70;;;4.20;;
7807;SDS011;3949;49.254;8.894;2023-09-30T00:35:39;7.40;;;4.47;;
7807;SDS011;3949;49.254;8.894;2023-09-30T00:38:05;4.67;;;4.13;;
7807;SDS011;3949;49.254;8.894;2023-09-30T00:40:31;6.40;;;4.43;;
7807;SDS011;3949;49.254;8.894;2023-09-30T00:42:58;5.60;;;4.30;;
7807;SDS011;3949;49.254;8.894;2023-09-30T00:45:24;5.83;;;4.77;;
7807;SDS011;3949;49.254;8.894;2023-09-30T00:47:50;7.87;;;5.07;;
7807;SDS011;3949;49.254;8.894;2023-09-30T00:50:16;6.10;;;4.50;;
7807;SDS011;3949;49.254;8.894;2023-09-30T00:52:42;5.73;;;4.60;;
7807;SDS011;3949;49.254;8.894;2023-09-30T00:55:08;6.93;;;4.03;;
7807;SDS011;3949;49.254;8.894;2023-09-30T00:57:35;4.83;;;3.90;;
7807;SDS011;3949;49.254;8.894;2023-09-30T01:00:02;4.47;;;4.03;;
7807;SDS011;3949;49.254;8.894;2023-09-30T01:02:29;6.77;;;4.20;;
7807;SDS011;3949;49.254;8.894;2023-09-30T01:04:55;4.10;;;3.47;;
7807;SDS011;3949;49.254;8.894;2023-09-30T01:07:21;8.97;;;4.87;;
7807;SDS011;3949;49.254;8.894;2023-09-30T01:09:47;5.57;;;3.73;;
7807;SDS011;3949;49.254;8.894;2023-09-30T01:12:13;3.53;;;3.13;;
7807;SDS011;3949;49.254;8.894;2023-09-30T01:14:39;4.37;;;3.03;;
7807;SDS011;3949;49.254;8.894;2023-09-30T01:17:07;4.00;;;3.50;;
7807;SDS011;3949;49.254;8.894;2023-09-30T01:19:40;3.60;;;3.17;;
7807;SDS011;3949;49.254;8.894;2023-09-30T01:22:09;4.83;;;3.47;;
7807;SDS011;3949;49.254;8.894;2023-09-30T01:24:39;4.80;;;3.90;;
7807;SDS011;3949;49.254;8.894;2023-09-30T01:27:06;4.30;;;3.53;;
7807;SDS011;3949;49.254;8.894;2023-09-30T01:29:32;4.13;;;3.60;;
7807;SDS011;3949;49.254;8.894;2023-09-30T01:31:58;4.77;;;3.90;;
7807;SDS011;3949;49.254;8.894;2023-09-30T01:34:24;5.13;;;3.53;;
7807;SDS011;3949;49.254;8.894;2023-09-30T01:36:50;4.20;;;3.43;;
7807;SDS011;3949;49.254;8.894;2023-09-30T01:39:16;7.83;;;3.63;;
7807;SDS011;3949;49.254;8.894;2023-09-30T01:41:42;5.50;;;4.17;;
7807;SDS011;3949;49.254;8.894;2023-09-30T01:44:08;4.87;;;4.37;;
7807;SDS011;3949;49.254;8.894;2023-09-30T01:46:34;6.47;;;4.50;;
7807;SDS011;3949;49.254;8.894;2023-09-30T01:49:01;8.77;;;4.13;;
7807;SDS011;3949;49.254;8.894;2023-09-30T01:51:28;5.10;;;4.03;;
7807;SDS011;3949;49.254;8.894;2023-09-30T01:53:54;6.60;;;4.10;;
7807;SDS011;3949;49.254;8.894;2023-09-30T01:56:20;4.87;;;4.40;;
7807;SDS011;3949;49.254;8.894;2023-09-30T01:58:47;6.03;;;4.20;;
7807;SDS011;3949;49.254;8.894;2023-09-30T02:01:13;4.93;;;3.90;;
7807;SDS011;3949;49.254;8.894;2023-09-30T02:03:39;5.83;;;4.37;;
7807;SDS011;3949;49.254;8.894;2023-09-30T02:06:05;4.47;;;3.80;;
7807;SDS011;3949;49.254;8.894;2023-09-30T02:08:31;5.30;;;4.10;;
7807;SDS011;3949;49.254;8.894;2023-09-30T02:10:57;5.97;;;4.03;;
7807;SDS011;3949;49.254;8.894;2023-09-30T02:13:23;5.60;;;4.27;;
7807;SDS011;3949;49.254;8.894;2023-09-30T02:15:49;5.17;;;4.00;;
7807;SDS011;3949;49.254;8.894;2023-09-30T02:18:16;6.57;;;3.87;;
7807;SDS011;3949;49.254;8.894;2023-09-30T02:20:42;4.43;;;3.90;;
7807;SDS011;3949;49.254;8.894;2023-09-30T02:23:09;4.83;;;4.13;;
7807;SDS011;3949;49.254;8.894;2023-09-30T02:25:36;7.10;;;4.43;;
7807;SDS011;3949;49.254;8.894;2023-09-30T02:28:02;4.30;;;3.63;;
7807;SDS011;3949;49.254;8.894;2023-09-30T02:30:29;6.27;;;4.23;;
7807;SDS011;3949;49.254;8.894;2023-09-30T02:32:56;5.77;;;4.10;;
7807;SDS011;3949;49.254;8.894;2023-09-30T02:35:22;4.90;;;3.87;;
7807;SDS011;3949;49.254;8.894;2023-09-30T02:37:48;5.30;;;3.90;;
7807;SDS011;3949;49.254;8.894;2023-09-30T02:40:17;5.43;;;3.70;;
7807;SDS011;3949;49.254;8.894;2023-09-30T02:42:43;6.47;;;3.90;;
7807;SDS011;3949;49.254;8.894;2023-09-30T02:45:10;7.53;;;4.30;;
7807;SDS011;3949;49.254;8.894;2023-09-30T02:47:36;7.60;;;4.03;;
7807;SDS011;3949;49.254;8.894;2023-09-30T02:50:03;4.47;;;3.50;;
7807;SDS011;3949;49.254;8.894;2023-09-30T02:52:29;5.67;;;3.87;;
7807;SDS011;3949;49.254;8.894;2023-09-30T02:54:56;4.67;;;4.07;;
7807;SDS011;3949;49.254;8.894;2023-09-30T02:57:22;5.90;;;4.93;;
7807;SDS011;3949;49.254;8.894;2023-09-30T02:59:48;6.93;;;4.57;;
7807;SDS011;3949;49.254;8.894;2023-09-30T03:02:14;6.67;;;4.90;;
7807;SDS011;3949;49.254;8.894;2023-09-30T03:04:40;6.57;;;4.57;;
7807;SDS011;3949;49.254;8.894;2023-09-30T03:07:07;5.43;;;4.50;;
7807;SDS011;3949;49.254;8.894;2023-09-30T03:09:33;4.97;;;4.37;;
7807;SDS011;3949;49.254;8.894;2023-09-30T03:12:01;7.23;;;4.57;;
7807;SDS011;3949;49.254;8.894;2023-09-30T03:14:27;5.90;;;4.97;;
7807;SDS011;3949;49.254;8.894;2023-09-30T03:16:55;7.17;;;4.93;;
7807;SDS011;3949;49.254;8.894;2023-09-30T03:19:21;6.50;;;5.37;;
7807;SDS011;3949;49.254;8.894;2023-09-30T03:21:48;8.47;;;5.43;;
7807;SDS011;3949;49.254;8.894;2023-09-30T03:24:13;5.33;;;4.83;;
7807;SDS011;3949;49.254;8.894;2023-09-30T03:26:39;9.17;;;6.07;;
7807;SDS011;3949;49.254;8.894;2023-09-30T03:29:06;5.93;;;5.33;;
7807;SDS011;3949;49.254;8.894;2023-09-30T03:31:34;6.93;;;5.10;;
7807;SDS011;3949;49.254;8.894;2023-09-30T03:34:00;8.17;;;5.27;;
7807;SDS011;3949;49.254;8.894;2023-09-30T03:36:26;7.43;;;5.30;;
7807;SDS011;3949;49.254;8.894;2023-09-30T03:38:55;7.17;;;5.33;;
7807;SDS011;3949;49.254;8.894;2023-09-30T03:41:24;9.47;;;5.47;;
7807;SDS011;3949;49.254;8.894;2023-09-30T03:43:50;10.83;;;6.50;;
7807;SDS011;3949;49.254;8.894;2023-09-30T03:46:16;10.37;;;6.33;;
7807;SDS011;3949;49.254;8.894;2023-09-30T03:48:42;8.53;;;6.63;;
7807;SDS011;3949;49.254;8.894;2023-09-30T03:51:10;8.13;;;6.57;;
7807;SDS011;3949;49.254;8.894;2023-09-30T03:53:42;7.73;;;5.20;;
7807;SDS011;3949;49.254;8.894;2023-09-30T03:56:08;8.23;;;5.73;;
7807;SDS011;3949;49.254;8.894;2023-09-30T03:58:36;9.43;;;6.43;;
7807;SDS011;3949;49.254;8.894;2023-09-30T04:01:03;7.90;;;5.80;;
7807;SDS011;3949;49.254;8.894;2023-09-30T04:03:29;6.50;;;5.00;;
7807;SDS011;3949;49.254;8.894;2023-09-30T04:05:58;5.03;;;4.37;;
7807;SDS011;3949;49.254;8.894;2023-09-30T04:08:24;6.67;;;4.97;;
7807;SDS011;3949;49.254;8.894;2023-09-30T04:10:50;7.90;;;6.20;;
7807;SDS011;3949;49.254;8.894;2023-09-30T04:13:16;7.57;;;5.83;;
7807;SDS011;3949;49.254;8.894;2023-09-30T04:15:42;7.50;;;5.53;;
7807;SDS011;3949;49.254;8.894;2023-09-30T04:18:09;8.43;;;5.50;;
7807;SDS011;3949;49.254;8.894;2023-09-30T04:20:36;8.70;;;6.27;;
7807;SDS011;3949;49.254;8.894;2023-09-30T04:23:04;8.17;;;5.83;;
7807;SDS011;3949;49.254;8.894;2023-09-30T04:25:32;6.80;;;5.90;;
7807;SDS011;3949;49.254;8.894;2023-09-30T04:27:58;7.13;;;5.83;;
7807;SDS011;3949;49.254;8.894;2023-09-30T04:30:25;8.03;;;5.83;;
7807;SDS011;3949;49.254;8.894;2023-09-30T04:32:52;7.70;;;5.47;;
7807;SDS011;3949;49.254;8.894;2023-09-30T04:35:19;8.03;;;5.30;;
7807;SDS011;3949;49.254;8.894;2023-09-30T04:37:45;8.07;;;5.50;;
7807;SDS011;3949;49.254;8.894;2023-09-30T04:40:11;6.03;;;5.43;;
7807;SDS011;3949;49.254;8.894;2023-09-30T04:42:46;8.30;;;5.30;;
7807;SDS011;3949;49.254;8.894;2023-09-30T04:45:13;9.37;;;5.00;;
7807;SDS011;3949;49.254;8.894;2023-09-30T04:47:41;7.03;;;6.23;;
7807;SDS011;3949;49.254;8.894;2023-09-30T04:50:09;8.77;;;5.73;;
7807;SDS011;3949;49.254;8.894;2023-09-30T04:52:36;7.27;;;5.23;;
7807;SDS011;3949;49.254;8.894;2023-09-30T04:55:03;10.77;;;5.87;;
7807;SDS011;3949;49.254;8.894;2023-09-30T04:57:30;9.23;;;6.37;;
7807;SDS011;3949;49.254;8.894;2023-09-30T04:59:56;9.83;;;5.77;;
7807;SDS011;3949;49.254;8.894;2023-09-30T05:02:23;7.63;;;5.30;;
7807;SDS011;3949;49.254;8.894;2023-09-30T05:04:49;7.47;;;5.90;;
7807;SDS011;3949;49.254;8.894;2023-09-30T05:07:15;9.97;;;6.43;;
7807;SDS011;3949;49.254;8.894;2023-09-30T05:09:41;6.97;;;5.70;;
7807;SDS011;3949;49.254;8.894;2023-09-30T05:12:07;9.77;;;6.67;;
7807;SDS011;3949;49.254;8.894;2023-09-30T05:14:35;11.13;;;6.60;;
7807;SDS011;3949;49.254;8.894;2023-09-30T05:17:01;12.33;;;7.17;;
7807;SDS011;3949;49.254;8.894;2023-09-30T05:19:29;9.87;;;7.13;;
7807;SDS011;3949;49.254;8.894;2023-09-30T05:21:57;9.27;;;6.67;;
7807;SDS011;3949;49.254;8.894;2023-09-30T05:24:23;12.33;;;7.33;;
7807;SDS011;3949;49.254;8.894;2023-09-30T05:26:49;7.83;;;6.30;;
7807;SDS011;3949;49.254;8.894;2023-09-30T05:29:15;13.87;;;7.37;;
7807;SDS011;3949;49.254;8.894;2023-09-30T05:31:41;11.63;;;6.87;;
7807;SDS011;3949;49.254;8.894;2023-09-30T05:34:07;8.50;;;6.57;;
7807;SDS011;3949;49.254;8.894;2023-09-30T05:36:33;9.70;;;7.20;;
7807;SDS011;3949;49.254;8.894;2023-09-30T05:39:00;11.60;;;7.57;;
7807;SDS011;3949;49.254;8.894;2023-09-30T05:41:27;11.90;;;8.10;;
7807;SDS011;3949;49.254;8.894;2023-09-30T05:43:54;11.27;;;7.20;;
7807;SDS011;3949;49.254;8.894;2023-09-30T05:46:20;9.93;;;7.47;;
7807;SDS011;3949;49.254;8.894;2023-09-30T05:48:46;13.70;;;7.37;;
7807;SDS011;3949;49.254;8.894;2023-09-30T05:51:12;11.00;;;6.57;;
7807;SDS011;3949;49.254;8.894;2023-09-30T05:53:40;12.10;;;6.83;;
7807;SDS011;3949;49.254;8.894;2023-09-30T05:56:06;12.70;;;7.50;;
7807;SDS011;3949;49.254;8.894;2023-09-30T05:58:32;9.93;;;6.83;;
7807;SDS011;3949;49.254;8.894;2023-09-30T06:00:58;10.33;;;7.70;;
7807;SDS011;3949;49.254;8.894;2023-09-30T06:03:31;9.27;;;6.90;;
7807;SDS011;3949;49.254;8.894;2023-09-30T06:05:58;10.87;;;6.33;;
7807;SDS011;3949;49.254;8.894;2023-09-30T06:08:25;11.03;;;7.20;;
7807;SDS011;3949;49.254;8.894;2023-09-30T06:10:51;9.53;;;6.73;;
7807;SDS011;3949;49.254;8.894;2023-09-30T06:13:18;9.97;;;6.70;;
7807;SDS011;3949;49.254;8.894;2023-09-30T06:15:43;7.87;;;6.37;;
7807;SDS011;3949;49.254;8.894;2023-09-30T06:18:11;7.53;;;5.60;;
7807;SDS011;3949;49.254;8.894;2023-09-30T06:20:40;7.70;;;5.30;;
7807;SDS011;3949;49.254;8.894;2023-09-30T06:23:06;8.53;;;5.37;;
7807;SDS011;3949;49.254;8.894;2023-09-30T06:25:32;6.97;;;5.83;;
7807;SDS011;3949;49.254;8.894;2023-09-30T06:27:58;10.17;;;6.20;;
7807;SDS011;3949;49.254;8.894;2023-09-30T06:30:24;8.97;;;6.33;;
7807;SDS011;3949;49.254;8.894;2023-09-30T06:32:59;8.60;;;7.03;;
7807;SDS011;3949;49.254;8.894;2023-09-30T06:35:25;9.03;;;6.97;;
7807;SDS011;3949;49.254;8.894;2023-09-30T06:37:51;7.77;;;5.80;;
7807;SDS011;3949;49.254;8.894;2023-09-30T06:40:17;8.47;;;6.37;;
7807;SDS011;3949;49.254;8.894;2023-09-30T06:42:44;9.43;;;6.50;;
7807;SDS011;3949;49.254;8.894;2023-09-30T06:45:10;8.10;;;6.70;;
7807;SDS011;3949;49.254;8.894;2023-09-30T06:47:39;7.67;;;6.67;;
7807;SDS011;3949;49.254;8.894;2023-09-30T06:50:10;10.37;;;7.97;;
7807;SDS011;3949;49.254;8.894;2023-09-30T06:52:37;9.03;;;7.10;;
7807;SDS011;3949;49.254;8.894;2023-09-30T06:55:04;8.63;;;6.97;;
7807;SDS011;3949;49.254;8.894;2023-09-30T06:57:34;11.70;;;7.43;;
7807;SDS011;3949;49.254;8.894;2023-09-30T07:00:00;9.53;;;7.90;;
7807;SDS011;3949;49.254;8.894;2023-09-30T07:02:28;10.90;;;7.57;;
7807;SDS011;3949;49.254;8.894;2023-09-30T07:04:54;9.67;;;7.23;;
7807;SDS011;3949;49.254;8.894;2023-09-30T07:07:19;9.40;;;7.03;;
7807;SDS011;3949;49.254;8.894;2023-09-30T07:09:45;7.90;;;6.37;;
7807;SDS011;3949;49.254;8.894;2023-09-30T07:12:11;10.27;;;8.33;;
7807;SDS011;3949;49.254;8.894;2023-09-30T07:14:37;9.37;;;6.80;;
7807;SDS011;3949;49.254;8.894;2023-09-30T07:17:03;8.40;;;6.63;;
7807;SDS011;3949;49.254;8.894;2023-09-30T07:19:30;8.50;;;6.50;;
7807;SDS011;3949;49.254;8.894;2023-09-30T07:21:56;8.87;;;7.10;;
7807;SDS011;3949;49.254;8.894;2023-09-30T07:24:22;9.00;;;6.80;;
7807;SDS011;3949;49.254;8.894;2023-09-30T07:26:48;8.27;;;6.30;;
7807;SDS011;3949;49.254;8.894;2023-09-30T07:29:14;8.77;;;6.67;;
7807;SDS011;3949;49.254;8.894;2023-09-30T07:31:40;8.73;;;6.87;;
7807;SDS011;3949;49.254;8.894;2023-09-30T07:34:05;9.47;;;7.03;;
7807;SDS011;3949;49.254;8.894;2023-09-30T07:36:31;8.40;;;6.70;;
7807;SDS011;3949;49.254;8.894;2023-09-30T07:38:58;7.23;;;6.47;;
7807;SDS011;3949;49.254;8.894;2023-09-30T07:41:25;8.30;;;6.83;;
7807;SDS011;3949;49.254;8.894;2023-09-30T07:43:51;6.97;;;6.33;;
7807;SDS011;3949;49.254;8.894;2023-09-30T07:46:17;8.73;;;7.83;;
7807;SDS011;3949;49.254;8.894;2023-09-30T07:48:43;8.47;;;7.13;;
7807;SDS011;3949;49.254;8.894;2023-09-30T07:51:09;11.17;;;7.57;;
7807;SDS011;3949;49.254;8.894;2023-09-30T07:53:38;8.43;;;6.83;;
7807;SDS011;3949;49.254;8.894;2023-09-30T07:56:05;7.50;;;6.70;;
7807;SDS011;3949;49.254;8.894;2023-09-30T07:58:31;6.87;;;6.20;;
7807;SDS011;3949;49.254;8.894;2023-09-30T08:00:58;9.20;;;6.97;;
7807;SDS011;3949;49.254;8.894;2023-09-30T08:03:25;8.27;;;6.10;;
7807;SDS011;3949;49.254;8.894;2023-09-30T08:05:51;7.23;;;6.13;;
7807;SDS011;3949;49.254;8.894;2023-09-30T08:08:17;10.30;;;8.63;;
7807;SDS011;3949;49.254;8.894;2023-09-30T08:10:43;7.83;;;6.07;;
7807;SDS011;3949;49.254;8.894;2023-09-30T08:13:09;7.97;;;5.10;;
7807;SDS011;3949;49.254;8.894;2023-09-30T08:15:35;9.80;;;6.67;;
7807;SDS011;3949;49.254;8.894;2023-09-30T08:18:03;6.70;;;4.90;;
7807;SDS011;3949;49.254;8.894;2023-09-30T08:20:31;6.40;;;4.97;;
7807;SDS011;3949;49.254;8.894;2023-09-30T08:22:56;6.40;;;4.73;;
7807;SDS011;3949;49.254;8.894;2023-09-30T08:25:23;9.30;;;5.30;;
7807;SDS011;3949;49.254;8.894;2023-09-30T08:27:49;6.13;;;4.70;;
7807;SDS011;3949;49.254;8.894;2023-09-30T08:30:16;7.47;;;4.73;;
7807;SDS011;3949;49.254;8.894;2023-09-30T08:32:42;6.13;;;4.67;;
7807;SDS011;3949;49.254;8.894;2023-09-30T08:35:08;7.47;;;4.83;;
7807;SDS011;3949;49.254;8.894;2023-09-30T08:37:34;7.70;;;4.10;;
7807;SDS011;3949;49.254;8.894;2023-09-30T08:40:00;5.07;;;4.03;;
7807;SDS011;3949;49.254;8.894;2023-09-30T08:42:29;5.70;;;4.43;;
7807;SDS011;3949;49.254;8.894;2023-09-30T08:44:59;7.17;;;3.63;;
7807;SDS011;3949;49.254;8.894;2023-09-30T08:47:28;6.80;;;4.20;;
7807;SDS011;3949;49.254;8.894;2023-09-30T08:49:54;6.67;;;3.83;;
7807;SDS011;3949;49.254;8.894;2023-09-30T08:52:22;7.87;;;3.97;;
7807;SDS011;3949;49.254;8.894;2023-09-30T08:54:49;4.50;;;3.47;;
7807;SDS011;3949;49.254;8.894;2023-09-30T08:57:15;6.73;;;3.70;;
7807;SDS011;3949;49.254;8.894;2023-09-30T08:59:43;5.50;;;3.97;;
7807;SDS011;3949;49.254;8.894;2023-09-30T09:02:10;7.93;;;4.20;;
7807;SDS011;3949;49.254;8.894;2023-09-30T09:04:36;4.27;;;3.30;;
7807;SDS011;3949;49.254;8.894;2023-09-30T09:07:02;6.70;;;4.00;;
7807;SDS011;3949;49.254;8.894;2023-09-30T09:09:28;4.57;;;3.60;;
7807;SDS011;3949;49.254;8.894;2023-09-30T09:11:54;5.83;;;3.40;;
7807;SDS011;3949;49.254;8.894;2023-09-30T09:14:36;5.40;;;3.50;;
7807;SDS011;3949;49.254;8.894;2023-09-30T09:17:03;6.03;;;3.73;;
7807;SDS011;3949;49.254;8.894;2023-09-30T09:19:30;6.80;;;3.33;;
7807;SDS011;3949;49.254;8.894;2023-09-30T09:21:58;6.63;;;3.40;;
7807;SDS011;3949;49.254;8.894;2023-09-30T09:26:53;4.80;;;3.20;;
7807;SDS011;3949;49.254;8.894;2023-09-30T09:29:29;7.27;;;3.80;;
7807;SDS011;3949;49.254;8.894;2023-09-30T09:32:05;4.57;;;3.50;;
7807;SDS011;3949;49.254;8.894;2023-09-30T09:34:32;5.17;;;3.20;;
7807;SDS011;3949;49.254;8.894;2023-09-30T09:36:58;6.03;;;3.53;;
7807;SDS011;3949;49.254;8.894;2023-09-30T09:39:30;6.00;;;3.60;;
7807;SDS011;3949;49.254;8.894;2023-09-30T09:41:56;4.23;;;2.80;;
7807;SDS011;3949;49.254;8.894;2023-09-30T09:44:23;7.20;;;3.70;;
7807;SDS011;3949;49.254;8.894;2023-09-30T09:46:52;6.03;;;3.63;;
7807;SDS011;3949;49.254;8.894;2023-09-30T09:49:19;6.30;;;4.03;;
7807;SDS011;3949;49.254;8.894;2023-09-30T09:51:45;5.33;;;3.30;;
7807;SDS011;3949;49.254;8.894;2023-09-30T09:54:12;5.47;;;3.50;;
7807;SDS011;3949;49.254;8.894;2023-09-30T09:56:38;4.90;;;3.50;;
7807;SDS011;3949;49.254;8.894;2023-09-30T09:59:05;4.27;;;3.57;;
7807;SDS011;3949;49.254;8.894;2023-09-30T10:01:33;6.77;;;3.67;;
7807;SDS011;3949;49.254;8.894;2023-09-30T10:04:04;5.33;;;3.10;;
7807;SDS011;3949;49.254;8.894;2023-09-30T10:06:30;4.03;;;3.07;;
7807;SDS011;3949;49.254;8.894;2023-09-30T10:09:03;4.70;;;3.50;;
7807;SDS011;3949;49.254;8.894;2023-09-30T10:11:30;4.50;;;3.00;;
7807;SDS011;3949;49.254;8.894;2023-09-30T10:13:57;5.57;;;3.13;;
7807;SDS011;3949;49.254;8.894;2023-09-30T10:19:20;5.93;;;3.00;;
7807;SDS011;3949;49.254;8.894;2023-09-30T10:24:34;5.13;;;3.22;;
7807;SDS011;3949;49.254;8.894;2023-09-30T10:29:45;4.13;;;3.15;;
7807;SDS011;3949;49.254;8.894;2023-09-30T10:32:11;5.50;;;3.25;;
7807;SDS011;3949;49.254;8.894;2023-09-30T10:34:38;5.05;;;3.47;;
7807;SDS011;3949;49.254;8.894;2023-09-30T10:37:20;7.07;;;3.63;;
7807;SDS011;3949;49.254;8.894;2023-09-30T10:39:56;5.13;;;3.60;;
7807;SDS011;3949;49.254;8.894;2023-09-30T10:45:25;7.90;;;4.47;;
7807;SDS011;3949;49.254;8.894;2023-09-30T10:47:55;5.83;;;3.80;;
7807;SDS011;3949;49.254;8.894;2023-09-30T10:53:06;4.53;;;3.10;;
7807;SDS011;3949;49.254;8.894;2023-09-30T10:55:32;5.37;;;3.43;;
7807;SDS011;3949;49.254;8.894;2023-09-30T10:57:59;5.90;;;3.87;;
7807;SDS011;3949;49.254;8.894;2023-09-30T11:00:25;5.73;;;3.13;;
7807;SDS011;3949;49.254;8.894;2023-09-30T11:02:51;7.07;;;3.53;;
7807;SDS011;3949;49.254;8.894;2023-09-30T11:05:18;7.40;;;3.60;;
7807;SDS011;3949;49.254;8.894;2023-09-30T11:07:47;5.07;;;3.43;;
7807;SDS011;3949;49.254;8.894;2023-09-30T11:10:17;5.07;;;3.58;;
7807;SDS011;3949;49.254;8.894;2023-09-30T11:12:53;4.47;;;3.35;;
7807;SDS011;3949;49.254;8.894;2023-09-30T11:15:19;5.45;;;3.53;;
7807;SDS011;3949;49.254;8.894;2023-09-30T11:17:46;5.68;;;3.55;;
7807;SDS011;3949;49.254;8.894;2023-09-30T11:20:12;5.28;;;3.83;;
7807;SDS011;3949;49.254;8.894;2023-09-30T11:22:38;4.32;;;3.22;;
7807;SDS011;3949;49.254;8.894;2023-09-30T11:25:05;5.32;;;3.35;;
7807;SDS011;3949;49.254;8.894;2023-09-30T11:27:31;4.93;;;3.25;;
7807;SDS011;3949;49.254;8.894;2023-09-30T11:29:57;4.97;;;3.63;;
7807;SDS011;3949;49.254;8.894;2023-09-30T11:32:24;5.90;;;3.22;;
7807;SDS011;3949;49.254;8.894;2023-09-30T11:34:52;5.45;;;3.65;;
7807;SDS011;3949;49.254;8.894;2023-09-30T11:37:18;4.80;;;3.78;;
7807;SDS011;3949;49.254;8.894;2023-09-30T11:39:44;5.53;;;3.55;;
7807;SDS011;3949;49.254;8.894;2023-09-30T11:42:16;5.20;;;3.30;;
7807;SDS011;3949;49.254;8.894;2023-09-30T11:44:45;6.75;;;4.43;;
7807;SDS011;3949;49.254;8.894;2023-09-30T11:47:15;5.88;;;4.18;;
7807;SDS011;3949;49.254;8.894;2023-09-30T11:49:45;6.32;;;4.07;;
7807;SDS011;3949;49.254;8.894;2023-09-30T11:52:25;6.93;;;4.47;;
7807;SDS011;3949;49.254;8.894;2023-09-30T11:54:51;5.75;;;4.43;;
7807;SDS011;3949;49.254;8.894;2023-09-30T11:57:18;8.67;;;4.37;;
7807;SDS011;3949;49.254;8.894;2023-09-30T11:59:45;5.18;;;3.70;;
7807;SDS011;3949;49.254;8.894;2023-09-30T12:02:12;5.93;;;3.97;;
7807;SDS011;3949;49.254;8.894;2023-09-30T12:04:39;6.03;;;4.18;;
7807;SDS011;3949;49.254;8.894;2023-09-30T12:07:06;5.72;;;4.05;;
7807;SDS011;3949;49.254;8.894;2023-09-30T12:09:33;6.95;;;3.90;;
7807;SDS011;3949;49.254;8.894;2023-09-30T12:12:02;7.13;;;4.40;;
7807;SDS011;3949;49.254;8.894;2023-09-30T12:14:28;5.20;;;4.18;;
7807;SDS011;3949;49.254;8.894;2023-09-30T12:16:55;7.30;;;5.00;;
7807;SDS011;3949;49.254;8.894;2023-09-30T12:19:21;8.50;;;4.77;;
7807;SDS011;3949;49.254;8.894;2023-09-30T12:21:47;8.80;;;4.33;;
7807;SDS011;3949;49.254;8.894;2023-09-30T12:24:14;6.50;;;4.40;;
7807;SDS011;3949;49.254;8.894;2023-09-30T12:26:44;5.20;;;4.07;;
7807;SDS011;3949;49.254;8.894;2023-09-30T12:29:16;7.67;;;4.30;;
7807;SDS011;3949;49.254;8.894;2023-09-30T12:31:46;5.73;;;4.00;;
7807;SDS011;3949;49.254;8.894;2023-09-30T12:34:12;6.17;;;4.60;;
7807;SDS011;3949;49.254;8.894;2023-09-30T12:36:38;6.53;;;4.27;;
7807;SDS011;3949;49.254;8.894;2023-09-30T12:39:04;7.20;;;3.73;;
7807;SDS011;3949;49.254;8.894;2023-09-30T12:41:44;8.23;;;4.60;;
7807;SDS011;3949;49.254;8.894;2023-09-30T12:44:10;7.10;;;4.40;;
7807;SDS011;3949;49.254;8.894;2023-09-30T12:46:36;7.40;;;4.20;;
7807;SDS011;3949;49.254;8.894;2023-09-30T12:49:04;8.10;;;4.30;;
7807;SDS011;3949;49.254;8.894;2023-09-30T12:51:30;6.23;;;4.37;;
7807;SDS011;3949;49.254;8.894;2023-09-30T12:53:56;8.80;;;5.00;;
7807;SDS011;3949;49.254;8.894;2023-09-30T12:56:25;7.60;;;5.20;;
7807;SDS011;3949;49.254;8.894;2023-09-30T12:58:51;7.67;;;5.83;;
7807;SDS011;3949;49.254;8.894;2023-09-30T13:01:18;9.13;;;5.70;;
7807;SDS011;3949;49.254;8.894;2023-09-30T13:03:44;8.40;;;5.10;;
7807;SDS011;3949;49.254;8.894;2023-09-30T13:06:11;7.93;;;4.55;;
7807;SDS011;3949;49.254;8.894;2023-09-30T13:08:37;8.93;;;5.00;;
7807;SDS011;3949;49.254;8.894;2023-09-30T13:11:03;6.07;;;4.45;;
7807;SDS011;3949;49.254;8.894;2023-09-30T13:13:30;7.93;;;4.40;;
7807;SDS011;3949;49.254;8.894;2023-09-30T13:15:58;8.55;;;5.45;;
7807;SDS011;3949;49.254;8.894;2023-09-30T13:18:24;8.05;;;5.22;;
7807;SDS011;3949;49.254;8.894;2023-09-30T13:20:50;7.20;;;4.93;;
7807;SDS011;3949;49.254;8.894;2023-09-30T13:23:17;7.50;;;4.90;;
7807;SDS011;3949;49.254;8.894;2023-09-30T13:25:43;7.17;;;5.00;;
7807;SDS011;3949;49.254;8.894;2023-09-30T13:28:10;7.07;;;4.80;;
7807;SDS011;3949;49.254;8.894;2023-09-30T13:30:36;8.50;;;4.87;;
7807;SDS011;3949;49.254;8.894;2023-09-30T13:33:02;8.40;;;4.97;;
7807;SDS011;3949;49.254;8.894;2023-09-30T13:35:28;6.87;;;4.50;;
7807;SDS011;3949;49.254;8.894;2023-09-30T13:37:54;8.20;;;4.67;;
7807;SDS011;3949;49.254;8.894;2023-09-30T13:40:20;6.97;;;4.80;;
7807;SDS011;3949;49.254;8.894;2023-09-30T13:42:46;6.40;;;4.37;;
7807;SDS011;3949;49.254;8.894;2023-09-30T13:45:12;6.27;;;4.57;;
7807;SDS011;3949;49.254;8.894;2023-09-30T13:47:38;8.20;;;4.80;;
7807;SDS011;3949;49.254;8.894;2023-09-30T13:50:04;8.23;;;4.90;;
7807;SDS011;3949;49.254;8.894;2023-09-30T13:52:32;8.67;;;5.40;;
7807;SDS011;3949;49.254;8.894;2023-09-30T13:54:58;9.37;;;6.37;;
7807;SDS011;3949;49.254;8.894;2023-09-30T13:57:24;9.27;;;6.00;;
7807;SDS011;3949;49.254;8.894;2023-09-30T13:59:50;9.93;;;5.47;;
7807;SDS011;3949;49.254;8.894;2023-09-30T14:02:16;8.00;;;5.03;;
7807;SDS011;3949;49.254;8.894;2023-09-30T14:04:42;6.83;;;4.53;;
7807;SDS011;3949;49.254;8.894;2023-09-30T14:07:09;9.33;;;5.83;;
7807;SDS011;3949;49.254;8.894;2023-09-30T14:09:35;8.80;;;5.87;;
7807;SDS011;3949;49.254;8.894;2023-09-30T14:12:01;9.70;;;5.67;;
7807;SDS011;3949;49.254;8.894;2023-09-30T14:14:30;10.07;;;5.73;;
7807;SDS011;3949;49.254;8.894;2023-09-30T14:16:56;6.23;;;4.90;;
7807;SDS011;3949;49.254;8.894;2023-09-30T14:19:22;8.70;;;5.40;;
7807;SDS011;3949;49.254;8.894;2023-09-30T14:21:48;6.83;;;5.03;;
7807;SDS011;3949;49.254;8.894;2023-09-30T14:24:14;9.60;;;5.53;;
7807;SDS011;3949;49.254;8.894;2023-09-30T14:26:40;8.47;;;4.63;;
7807;SDS011;3949;49.254;8.894;2023-09-30T14:29:06;8.37;;;5.03;;
7807;SDS011;3949;49.254;8.894;2023-09-30T14:31:32;10.73;;;5.00;;
7807;SDS011;3949;49.254;8.894;2023-09-30T14:33:58;8.00;;;4.70;;
7807;SDS011;3949;49.254;8.894;2023-09-30T14:36:24;7.53;;;4.73;;
7807;SDS011;3949;49.254;8.894;2023-09-30T14:38:50;6.17;;;4.67;;
7807;SDS011;3949;49.254;8.894;2023-09-30T14:41:16;7.70;;;4.90;;
7807;SDS011;3949;49.254;8.894;2023-09-30T14:43:43;7.13;;;4.90;;
7807;SDS011;3949;49.254;8.894;2023-09-30T14:46:10;8.57;;;4.90;;
7807;SDS011;3949;49.254;8.894;2023-09-30T14:48:37;9.33;;;7.47;;
7807;SDS011;3949;49.254;8.894;2023-09-30T14:51:04;8.13;;;5.37;;
7807;SDS011;3949;49.254;8.894;2023-09-30T14:53:31;7.83;;;4.93;;
7807;SDS011;3949;49.254;8.894;2023-09-30T14:55:57;11.80;;;5.60;;
7807;SDS011;3949;49.254;8.894;2023-09-30T14:58:23;7.83;;;5.03;;
7807;SDS011;3949;49.254;8.894;2023-09-30T15:00:49;6.80;;;5.17;;
7807;SDS011;3949;49.254;8.894;2023-09-30T15:03:15;8.63;;;5.53;;
7807;SDS011;3949;49.254;8.894;2023-09-30T15:05:41;9.00;;;5.03;;
7807;SDS011;3949;49.254;8.894;2023-09-30T15:08:07;7.13;;;4.77;;
7807;SDS011;3949;49.254;8.894;2023-09-30T15:10:35;8.33;;;5.03;;
7807;SDS011;3949;49.254;8.894;2023-09-30T15:13:01;8.03;;;5.00;;
7807;SDS011;3949;49.254;8.894;2023-09-30T15:15:29;9.07;;;5.10;;
7807;SDS011;3949;49.254;8.894;2023-09-30T15:17:55;8.03;;;5.47;;
7807;SDS011;3949;49.254;8.894;2023-09-30T15:20:21;8.37;;;6.33;;
7807;SDS011;3949;49.254;8.894;2023-09-30T15:22:47;8.20;;;5.10;;
7807;SDS011;3949;49.254;8.894;2023-09-30T15:25:13;8.33;;;5.47;;
7807;SDS011;3949;49.254;8.894;2023-09-30T15:27:39;8.20;;;4.93;;
7807;SDS011;3949;49.254;8.894;2023-09-30T15:30:05;8.13;;;5.07;;